Terminal Aerodrome Forecast
Issued by NWS

Home | Current Version | Previous Version | Text Only | Print | Product List | Glossary On
Versions: 1 2 3 4 5 6 7 8 9 10 11 12 13 14 15
000
FTUS42 KJAX 250044 AAA
TAFCRG
TAF AMD
KCRG 250044Z 2501/2524 06010KT P6SM FEW030
     FM250900 03006KT P6SM VCSH SCT015 BKN025
     FM251500 06012G20KT P6SM VCSH SCT025 BKN035=

USA.gov is the U.S. government's official web portal to all federal, state and local government web resources and services.